sensor_id;sensor_type;location;lat;lon;timestamp;P1;durP1;ratioP1;P2;durP2;ratioP2
6985;SDS011;3533;51.246;6.850;2023-02-28T00:00:21;1.40;;;1.27;;
6985;SDS011;3533;51.246;6.850;2023-02-28T00:02:47;1.50;;;1.40;;
6985;SDS011;3533;51.246;6.850;2023-02-28T00:05:14;1.40;;;1.30;;
6985;SDS011;3533;51.246;6.850;2023-02-28T00:07:41;1.60;;;1.50;;
6985;SDS011;3533;51.246;6.850;2023-02-28T00:10:07;1.37;;;1.27;;
6985;SDS011;3533;51.246;6.850;2023-02-28T00:12:45;2.70;;;1.50;;
6985;SDS011;3533;51.246;6.850;2023-02-28T00:15:12;1.47;;;1.37;;
6985;SDS011;3533;51.246;6.850;2023-02-28T00:17:38;1.40;;;1.30;;
6985;SDS011;3533;51.246;6.850;2023-02-28T00:20:04;1.80;;;1.70;;
6985;SDS011;3533;51.246;6.850;2023-02-28T00:22:35;1.50;;;1.40;;
6985;SDS011;3533;51.246;6.850;2023-02-28T00:25:01;1.47;;;1.37;;
6985;SDS011;3533;51.246;6.850;2023-02-28T00:27:28;1.40;;;1.30;;
6985;SDS011;3533;51.246;6.850;2023-02-28T00:29:54;1.40;;;1.30;;
6985;SDS011;3533;51.246;6.850;2023-02-28T00:32:20;1.50;;;1.40;;
6985;SDS011;3533;51.246;6.850;2023-02-28T00:34:45;1.60;;;1.50;;
6985;SDS011;3533;51.246;6.850;2023-02-28T00:37:11;1.53;;;1.43;;
6985;SDS011;3533;51.246;6.850;2023-02-28T00:39:37;1.40;;;1.30;;
6985;SDS011;3533;51.246;6.850;2023-02-28T00:42:03;1.43;;;1.33;;
6985;SDS011;3533;51.246;6.850;2023-02-28T00:44:30;1.90;;;1.80;;
6985;SDS011;3533;51.246;6.850;2023-02-28T00:46:56;1.40;;;1.30;;
6985;SDS011;3533;51.246;6.850;2023-02-28T00:49:22;1.47;;;1.37;;
6985;SDS011;3533;51.246;6.850;2023-02-28T00:51:48;1.63;;;1.53;;
6985;SDS011;3533;51.246;6.850;2023-02-28T00:54:15;1.57;;;1.47;;
6985;SDS011;3533;51.246;6.850;2023-02-28T00:56:41;1.50;;;1.40;;
6985;SDS011;3533;51.246;6.850;2023-02-28T00:59:06;1.33;;;1.23;;
6985;SDS011;3533;51.246;6.850;2023-02-28T01:01:32;1.67;;;1.57;;
6985;SDS011;3533;51.246;6.850;2023-02-28T01:03:57;1.60;;;1.50;;
6985;SDS011;3533;51.246;6.850;2023-02-28T01:06:23;1.50;;;1.40;;
6985;SDS011;3533;51.246;6.850;2023-02-28T01:08:48;1.80;;;1.70;;
6985;SDS011;3533;51.246;6.850;2023-02-28T01:11:15;1.50;;;1.40;;
6985;SDS011;3533;51.246;6.850;2023-02-28T01:13:42;1.47;;;1.37;;
6985;SDS011;3533;51.246;6.850;2023-02-28T01:16:10;1.43;;;1.33;;
6985;SDS011;3533;51.246;6.850;2023-02-28T01:18:36;1.53;;;1.43;;
6985;SDS011;3533;51.246;6.850;2023-02-28T01:21:06;1.70;;;1.60;;
6985;SDS011;3533;51.246;6.850;2023-02-28T01:23:33;2.60;;;1.93;;
6985;SDS011;3533;51.246;6.850;2023-02-28T01:26:10;1.60;;;1.50;;
6985;SDS011;3533;51.246;6.850;2023-02-28T01:28:38;1.40;;;1.30;;
6985;SDS011;3533;51.246;6.850;2023-02-28T01:31:03;1.50;;;1.40;;
6985;SDS011;3533;51.246;6.850;2023-02-28T01:33:30;1.70;;;1.60;;
6985;SDS011;3533;51.246;6.850;2023-02-28T01:35:59;1.47;;;1.37;;
6985;SDS011;3533;51.246;6.850;2023-02-28T01:38:26;1.53;;;1.43;;
6985;SDS011;3533;51.246;6.850;2023-02-28T01:40:52;1.43;;;1.33;;
6985;SDS011;3533;51.246;6.850;2023-02-28T01:43:22;1.73;;;1.50;;
6985;SDS011;3533;51.246;6.850;2023-02-28T01:45:55;1.40;;;1.30;;
6985;SDS011;3533;51.246;6.850;2023-02-28T01:48:29;1.70;;;1.60;;
6985;SDS011;3533;51.246;6.850;2023-02-28T01:50:58;1.70;;;1.60;;
6985;SDS011;3533;51.246;6.850;2023-02-28T01:53:32;1.60;;;1.50;;
6985;SDS011;3533;51.246;6.850;2023-02-28T01:56:03;1.83;;;1.50;;
6985;SDS011;3533;51.246;6.850;2023-02-28T01:58:31;1.53;;;1.43;;
6985;SDS011;3533;51.246;6.850;2023-02-28T02:00:57;1.47;;;1.37;;
6985;SDS011;3533;51.246;6.850;2023-02-28T02:03:22;3.30;;;2.10;;
6985;SDS011;3533;51.246;6.850;2023-02-28T02:05:49;1.67;;;1.57;;
6985;SDS011;3533;51.246;6.850;2023-02-28T02:08:17;1.60;;;1.50;;
6985;SDS011;3533;51.246;6.850;2023-02-28T02:10:50;1.53;;;1.43;;
6985;SDS011;3533;51.246;6.850;2023-02-28T02:16:23;1.50;;;1.40;;
6985;SDS011;3533;51.246;6.850;2023-02-28T02:33:25;1.40;;;1.30;;
6985;SDS011;3533;51.246;6.850;2023-02-28T02:36:27;1.50;;;1.40;;
6985;SDS011;3533;51.246;6.850;2023-02-28T02:41:51;1.73;;;1.63;;
6985;SDS011;3533;51.246;6.850;2023-02-28T02:46:54;1.60;;;1.50;;
6985;SDS011;3533;51.246;6.850;2023-02-28T02:49:29;1.63;;;1.53;;
6985;SDS011;3533;51.246;6.850;2023-02-28T02:51:57;1.30;;;1.20;;
6985;SDS011;3533;51.246;6.850;2023-02-28T02:54:29;1.63;;;1.50;;
6985;SDS011;3533;51.246;6.850;2023-02-28T02:57:08;1.50;;;1.40;;
6985;SDS011;3533;51.246;6.850;2023-02-28T02:59:40;1.60;;;1.50;;
6985;SDS011;3533;51.246;6.850;2023-02-28T03:02:07;1.40;;;1.30;;
6985;SDS011;3533;51.246;6.850;2023-02-28T03:04:42;1.50;;;1.40;;
6985;SDS011;3533;51.246;6.850;2023-02-28T03:07:11;1.77;;;1.67;;
6985;SDS011;3533;51.246;6.850;2023-02-28T03:09:36;1.67;;;1.40;;
6985;SDS011;3533;51.246;6.850;2023-02-28T03:12:02;1.63;;;1.50;;
6985;SDS011;3533;51.246;6.850;2023-02-28T03:14:39;1.43;;;1.33;;
6985;SDS011;3533;51.246;6.850;2023-02-28T03:17:25;1.43;;;1.33;;
6985;SDS011;3533;51.246;6.850;2023-02-28T03:28:08;1.50;;;1.40;;
6985;SDS011;3533;51.246;6.850;2023-02-28T03:30:58;1.50;;;1.40;;
6985;SDS011;3533;51.246;6.850;2023-02-28T03:33:30;1.37;;;1.27;;
6985;SDS011;3533;51.246;6.850;2023-02-28T03:36:05;1.53;;;1.43;;
6985;SDS011;3533;51.246;6.850;2023-02-28T03:39:20;1.73;;;1.63;;
6985;SDS011;3533;51.246;6.850;2023-02-28T03:42:15;1.40;;;1.30;;
6985;SDS011;3533;51.246;6.850;2023-02-28T03:44:24;1.30;;;1.20;;
6985;SDS011;3533;51.246;6.850;2023-02-28T03:52:33;1.70;;;1.60;;
6985;SDS011;3533;51.246;6.850;2023-02-28T03:55:03;1.43;;;1.33;;
6985;SDS011;3533;51.246;6.850;2023-02-28T03:57:37;1.77;;;1.67;;
6985;SDS011;3533;51.246;6.850;2023-02-28T04:00:12;1.60;;;1.50;;
6985;SDS011;3533;51.246;6.850;2023-02-28T04:02:42;1.67;;;1.57;;
6985;SDS011;3533;51.246;6.850;2023-02-28T04:05:08;1.50;;;1.40;;
6985;SDS011;3533;51.246;6.850;2023-02-28T04:07:34;1.30;;;1.20;;
6985;SDS011;3533;51.246;6.850;2023-02-28T04:10:00;1.30;;;1.20;;
6985;SDS011;3533;51.246;6.850;2023-02-28T04:12:25;1.37;;;1.27;;
6985;SDS011;3533;51.246;6.850;2023-02-28T04:14:51;1.43;;;1.33;;
6985;SDS011;3533;51.246;6.850;2023-02-28T04:17:16;1.33;;;1.23;;
6985;SDS011;3533;51.246;6.850;2023-02-28T04:19:42;1.50;;;1.40;;
6985;SDS011;3533;51.246;6.850;2023-02-28T04:22:08;1.63;;;1.10;;
6985;SDS011;3533;51.246;6.850;2023-02-28T04:24:34;1.47;;;1.37;;
6985;SDS011;3533;51.246;6.850;2023-02-28T04:27:00;1.50;;;1.40;;
6985;SDS011;3533;51.246;6.850;2023-02-28T04:29:27;2.83;;;1.40;;
6985;SDS011;3533;51.246;6.850;2023-02-28T04:31:54;1.67;;;1.30;;
6985;SDS011;3533;51.246;6.850;2023-02-28T04:34:22;1.57;;;1.40;;
6985;SDS011;3533;51.246;6.850;2023-02-28T04:36:49;1.30;;;1.20;;
6985;SDS011;3533;51.246;6.850;2023-02-28T04:39:16;1.30;;;1.20;;
6985;SDS011;3533;51.246;6.850;2023-02-28T04:41:43;1.50;;;1.40;;
6985;SDS011;3533;51.246;6.850;2023-02-28T04:44:09;1.20;;;1.10;;
6985;SDS011;3533;51.246;6.850;2023-02-28T04:46:35;1.40;;;1.30;;
6985;SDS011;3533;51.246;6.850;2023-02-28T04:49:00;1.40;;;1.30;;
6985;SDS011;3533;51.246;6.850;2023-02-28T04:51:26;1.40;;;1.30;;
6985;SDS011;3533;51.246;6.850;2023-02-28T04:53:51;1.53;;;1.43;;
6985;SDS011;3533;51.246;6.850;2023-02-28T04:56:17;1.30;;;1.20;;
6985;SDS011;3533;51.246;6.850;2023-02-28T04:58:43;1.33;;;1.23;;
6985;SDS011;3533;51.246;6.850;2023-02-28T05:01:17;1.40;;;1.30;;
6985;SDS011;3533;51.246;6.850;2023-02-28T05:03:45;1.40;;;1.30;;
6985;SDS011;3533;51.246;6.850;2023-02-28T05:06:11;3.83;;;1.30;;
6985;SDS011;3533;51.246;6.850;2023-02-28T05:08:38;1.20;;;1.10;;
6985;SDS011;3533;51.246;6.850;2023-02-28T05:11:05;1.10;;;1.00;;
6985;SDS011;3533;51.246;6.850;2023-02-28T05:13:33;1.40;;;1.20;;
6985;SDS011;3533;51.246;6.850;2023-02-28T05:16:00;1.33;;;1.13;;
6985;SDS011;3533;51.246;6.850;2023-02-28T05:18:26;1.13;;;1.03;;
6985;SDS011;3533;51.246;6.850;2023-02-28T05:20:51;1.20;;;1.10;;
6985;SDS011;3533;51.246;6.850;2023-02-28T05:23:17;1.50;;;1.40;;
6985;SDS011;3533;51.246;6.850;2023-02-28T05:25:44;1.40;;;1.30;;
6985;SDS011;3533;51.246;6.850;2023-02-28T05:28:10;1.30;;;1.20;;
6985;SDS011;3533;51.246;6.850;2023-02-28T05:30:35;2.37;;;2.17;;
6985;SDS011;3533;51.246;6.850;2023-02-28T05:33:01;2.23;;;1.50;;
6985;SDS011;3533;51.246;6.850;2023-02-28T05:35:26;1.40;;;1.30;;
6985;SDS011;3533;51.246;6.850;2023-02-28T05:37:52;1.40;;;1.30;;
6985;SDS011;3533;51.246;6.850;2023-02-28T05:40:18;1.33;;;1.23;;
6985;SDS011;3533;51.246;6.850;2023-02-28T05:42:45;1.40;;;1.30;;
6985;SDS011;3533;51.246;6.850;2023-02-28T05:45:11;1.30;;;1.20;;
6985;SDS011;3533;51.246;6.850;2023-02-28T05:47:37;1.33;;;1.23;;
6985;SDS011;3533;51.246;6.850;2023-02-28T05:50:03;1.50;;;1.40;;
6985;SDS011;3533;51.246;6.850;2023-02-28T05:52:29;1.60;;;1.30;;
6985;SDS011;3533;51.246;6.850;2023-02-28T05:54:57;1.20;;;1.10;;
6985;SDS011;3533;51.246;6.850;2023-02-28T05:57:23;1.40;;;1.30;;
6985;SDS011;3533;51.246;6.850;2023-02-28T05:59:49;1.40;;;1.30;;
6985;SDS011;3533;51.246;6.850;2023-02-28T06:02:15;1.30;;;1.20;;
6985;SDS011;3533;51.246;6.850;2023-02-28T06:04:41;1.60;;;1.30;;
6985;SDS011;3533;51.246;6.850;2023-02-28T06:07:08;1.13;;;1.03;;
6985;SDS011;3533;51.246;6.850;2023-02-28T06:09:34;4.23;;;1.23;;
6985;SDS011;3533;51.246;6.850;2023-02-28T06:12:01;1.30;;;1.20;;
6985;SDS011;3533;51.246;6.850;2023-02-28T06:14:30;1.40;;;1.30;;
6985;SDS011;3533;51.246;6.850;2023-02-28T06:16:57;1.30;;;1.20;;
6985;SDS011;3533;51.246;6.850;2023-02-28T06:19:23;1.37;;;1.27;;
6985;SDS011;3533;51.246;6.850;2023-02-28T06:21:52;1.20;;;1.10;;
6985;SDS011;3533;51.246;6.850;2023-02-28T06:24:21;1.37;;;1.27;;
6985;SDS011;3533;51.246;6.850;2023-02-28T06:26:49;1.23;;;1.13;;
6985;SDS011;3533;51.246;6.850;2023-02-28T06:29:15;1.20;;;1.10;;
6985;SDS011;3533;51.246;6.850;2023-02-28T06:31:41;1.30;;;1.20;;
6985;SDS011;3533;51.246;6.850;2023-02-28T06:34:08;1.00;;;0.97;;
6985;SDS011;3533;51.246;6.850;2023-02-28T06:36:36;1.50;;;1.10;;
6985;SDS011;3533;51.246;6.850;2023-02-28T06:39:06;1.40;;;1.30;;
6985;SDS011;3533;51.246;6.850;2023-02-28T06:41:33;2.73;;;1.30;;
6985;SDS011;3533;51.246;6.850;2023-02-28T06:44:03;1.30;;;1.20;;
6985;SDS011;3533;51.246;6.850;2023-02-28T06:46:30;1.30;;;1.20;;
6985;SDS011;3533;51.246;6.850;2023-02-28T06:48:56;1.20;;;1.10;;
6985;SDS011;3533;51.246;6.850;2023-02-28T06:51:22;1.40;;;1.30;;
6985;SDS011;3533;51.246;6.850;2023-02-28T06:53:49;2.17;;;0.97;;
6985;SDS011;3533;51.246;6.850;2023-02-28T06:56:15;1.17;;;1.07;;
6985;SDS011;3533;51.246;6.850;2023-02-28T06:58:49;2.03;;;1.40;;
6985;SDS011;3533;51.246;6.850;2023-02-28T07:01:15;2.67;;;1.30;;
6985;SDS011;3533;51.246;6.850;2023-02-28T07:03:41;1.80;;;1.20;;
6985;SDS011;3533;51.246;6.850;2023-02-28T07:06:07;1.20;;;1.10;;
6985;SDS011;3533;51.246;6.850;2023-02-28T07:08:33;1.30;;;1.20;;
6985;SDS011;3533;51.246;6.850;2023-02-28T07:11:00;1.50;;;1.40;;
6985;SDS011;3533;51.246;6.850;2023-02-28T07:13:26;1.10;;;1.00;;
6985;SDS011;3533;51.246;6.850;2023-02-28T07:16:03;2.10;;;1.20;;
6985;SDS011;3533;51.246;6.850;2023-02-28T07:18:30;1.80;;;1.30;;
6985;SDS011;3533;51.246;6.850;2023-02-28T07:20:56;1.20;;;1.10;;
6985;SDS011;3533;51.246;6.850;2023-02-28T07:23:21;1.30;;;1.20;;
6985;SDS011;3533;51.246;6.850;2023-02-28T07:25:47;1.30;;;1.20;;
6985;SDS011;3533;51.246;6.850;2023-02-28T07:28:13;1.33;;;1.23;;
6985;SDS011;3533;51.246;6.850;2023-02-28T07:30:40;1.20;;;1.10;;
6985;SDS011;3533;51.246;6.850;2023-02-28T07:33:06;1.20;;;1.10;;
6985;SDS011;3533;51.246;6.850;2023-02-28T07:35:31;1.10;;;1.00;;
6985;SDS011;3533;51.246;6.850;2023-02-28T07:37:57;1.80;;;1.20;;
6985;SDS011;3533;51.246;6.850;2023-02-28T07:40:24;1.30;;;1.20;;
6985;SDS011;3533;51.246;6.850;2023-02-28T07:42:49;1.30;;;1.20;;
6985;SDS011;3533;51.246;6.850;2023-02-28T07:45:15;1.30;;;1.20;;
6985;SDS011;3533;51.246;6.850;2023-02-28T07:47:41;1.20;;;1.10;;
6985;SDS011;3533;51.246;6.850;2023-02-28T07:50:08;1.23;;;1.13;;
6985;SDS011;3533;51.246;6.850;2023-02-28T07:52:36;1.30;;;1.20;;
6985;SDS011;3533;51.246;6.850;2023-02-28T07:55:01;1.43;;;1.20;;
6985;SDS011;3533;51.246;6.850;2023-02-28T07:57:27;1.20;;;1.10;;
6985;SDS011;3533;51.246;6.850;2023-02-28T07:59:53;1.20;;;1.10;;
6985;SDS011;3533;51.246;6.850;2023-02-28T08:02:18;1.20;;;1.10;;
6985;SDS011;3533;51.246;6.850;2023-02-28T08:04:44;1.73;;;1.20;;
6985;SDS011;3533;51.246;6.850;2023-02-28T08:07:12;1.27;;;1.17;;
6985;SDS011;3533;51.246;6.850;2023-02-28T08:09:41;1.13;;;1.03;;
6985;SDS011;3533;51.246;6.850;2023-02-28T08:12:07;1.23;;;1.13;;
6985;SDS011;3533;51.246;6.850;2023-02-28T08:14:34;0.80;;;0.80;;
6985;SDS011;3533;51.246;6.850;2023-02-28T08:17:00;1.30;;;1.20;;
6985;SDS011;3533;51.246;6.850;2023-02-28T08:19:25;1.33;;;1.23;;
6985;SDS011;3533;51.246;6.850;2023-02-28T08:21:51;1.20;;;1.10;;
6985;SDS011;3533;51.246;6.850;2023-02-28T08:24:17;1.30;;;1.20;;
6985;SDS011;3533;51.246;6.850;2023-02-28T08:26:42;1.83;;;1.07;;
6985;SDS011;3533;51.246;6.850;2023-02-28T08:29:08;5.33;;;1.17;;
6985;SDS011;3533;51.246;6.850;2023-02-28T08:31:33;1.10;;;1.00;;
6985;SDS011;3533;51.246;6.850;2023-02-28T08:34:00;1.10;;;1.00;;
6985;SDS011;3533;51.246;6.850;2023-02-28T08:36:32;1.33;;;1.23;;
6985;SDS011;3533;51.246;6.850;2023-02-28T08:38:58;1.10;;;1.10;;
6985;SDS011;3533;51.246;6.850;2023-02-28T08:41:24;1.10;;;1.00;;
6985;SDS011;3533;51.246;6.850;2023-02-28T08:43:51;1.10;;;1.00;;
6985;SDS011;3533;51.246;6.850;2023-02-28T08:46:16;1.20;;;1.10;;
6985;SDS011;3533;51.246;6.850;2023-02-28T08:48:42;1.20;;;1.10;;
6985;SDS011;3533;51.246;6.850;2023-02-28T08:51:10;1.10;;;1.00;;
6985;SDS011;3533;51.246;6.850;2023-02-28T08:53:37;1.20;;;1.10;;
6985;SDS011;3533;51.246;6.850;2023-02-28T08:56:05;1.23;;;1.13;;
6985;SDS011;3533;51.246;6.850;2023-02-28T08:58:33;1.10;;;1.00;;
6985;SDS011;3533;51.246;6.850;2023-02-28T09:00:59;1.10;;;1.00;;
6985;SDS011;3533;51.246;6.850;2023-02-28T09:03:25;1.40;;;1.17;;
6985;SDS011;3533;51.246;6.850;2023-02-28T09:05:55;0.90;;;0.90;;
6985;SDS011;3533;51.246;6.850;2023-02-28T09:08:23;1.13;;;1.03;;
6985;SDS011;3533;51.246;6.850;2023-02-28T09:10:50;1.10;;;1.00;;
6985;SDS011;3533;51.246;6.850;2023-02-28T09:13:16;1.03;;;1.00;;
6985;SDS011;3533;51.246;6.850;2023-02-28T09:15:42;1.20;;;1.10;;
6985;SDS011;3533;51.246;6.850;2023-02-28T09:18:07;1.10;;;1.00;;
6985;SDS011;3533;51.246;6.850;2023-02-28T09:20:33;1.13;;;1.00;;
6985;SDS011;3533;51.246;6.850;2023-02-28T09:22:58;1.17;;;1.00;;
6985;SDS011;3533;51.246;6.850;2023-02-28T09:25:24;1.00;;;0.90;;
6985;SDS011;3533;51.246;6.850;2023-02-28T09:27:49;1.00;;;0.90;;
6985;SDS011;3533;51.246;6.850;2023-02-28T09:30:15;1.00;;;0.90;;
6985;SDS011;3533;51.246;6.850;2023-02-28T09:32:41;1.00;;;0.90;;
6985;SDS011;3533;51.246;6.850;2023-02-28T09:35:07;1.10;;;0.93;;
6985;SDS011;3533;51.246;6.850;2023-02-28T09:37:38;1.00;;;1.00;;
6985;SDS011;3533;51.246;6.850;2023-02-28T09:40:04;0.80;;;0.80;;
6985;SDS011;3533;51.246;6.850;2023-02-28T09:42:31;1.13;;;1.03;;
6985;SDS011;3533;51.246;6.850;2023-02-28T09:44:58;1.20;;;1.10;;
6985;SDS011;3533;51.246;6.850;2023-02-28T09:47:33;1.40;;;1.30;;
6985;SDS011;3533;51.246;6.850;2023-02-28T09:50:07;0.93;;;0.90;;
6985;SDS011;3533;51.246;6.850;2023-02-28T09:52:46;1.20;;;1.10;;
6985;SDS011;3533;51.246;6.850;2023-02-28T09:55:21;1.10;;;1.00;;
6985;SDS011;3533;51.246;6.850;2023-02-28T09:58:04;1.30;;;1.20;;
6985;SDS011;3533;51.246;6.850;2023-02-28T10:00:32;1.10;;;1.03;;
6985;SDS011;3533;51.246;6.850;2023-02-28T10:03:06;1.00;;;0.90;;
6985;SDS011;3533;51.246;6.850;2023-02-28T10:06:04;1.10;;;1.00;;
6985;SDS011;3533;51.246;6.850;2023-02-28T10:08:45;1.07;;;0.97;;
6985;SDS011;3533;51.246;6.850;2023-02-28T10:11:21;1.00;;;1.00;;
6985;SDS011;3533;51.246;6.850;2023-02-28T10:16:26;1.00;;;0.90;;
6985;SDS011;3533;51.246;6.850;2023-02-28T10:18:57;1.20;;;1.10;;
6985;SDS011;3533;51.246;6.850;2023-02-28T10:21:46;1.10;;;1.00;;
6985;SDS011;3533;51.246;6.850;2023-02-28T10:26:51;1.70;;;1.13;;
6985;SDS011;3533;51.246;6.850;2023-02-28T10:29:20;1.10;;;1.00;;
6985;SDS011;3533;51.246;6.850;2023-02-28T10:31:46;1.00;;;0.90;;
6985;SDS011;3533;51.246;6.850;2023-02-28T10:34:12;1.00;;;0.90;;
6985;SDS011;3533;51.246;6.850;2023-02-28T10:36:38;0.93;;;0.93;;
6985;SDS011;3533;51.246;6.850;2023-02-28T10:41:59;1.00;;;0.90;;
6985;SDS011;3533;51.246;6.850;2023-02-28T10:44:24;1.00;;;0.93;;
6985;SDS011;3533;51.246;6.850;2023-02-28T10:46:50;1.10;;;0.90;;
6985;SDS011;3533;51.246;6.850;2023-02-28T10:49:20;0.90;;;0.90;;
6985;SDS011;3533;51.246;6.850;2023-02-28T10:51:49;1.00;;;0.90;;
6985;SDS011;3533;51.246;6.850;2023-02-28T10:54:19;1.00;;;0.90;;
6985;SDS011;3533;51.246;6.850;2023-02-28T10:59:50;0.93;;;0.87;;
6985;SDS011;3533;51.246;6.850;2023-02-28T11:02:34;0.97;;;0.90;;
6985;SDS011;3533;51.246;6.850;2023-02-28T11:05:14;0.90;;;0.90;;
6985;SDS011;3533;51.246;6.850;2023-02-28T11:07:54;0.80;;;0.80;;
6985;SDS011;3533;51.246;6.850;2023-02-28T11:10:23;0.80;;;0.77;;
6985;SDS011;3533;51.246;6.850;2023-02-28T11:12:54;0.93;;;0.90;;
6985;SDS011;3533;51.246;6.850;2023-02-28T11:15:27;1.00;;;0.90;;
6985;SDS011;3533;51.246;6.850;2023-02-28T11:17:56;0.93;;;0.83;;
6985;SDS011;3533;51.246;6.850;2023-02-28T11:20:23;0.70;;;0.70;;
6985;SDS011;3533;51.246;6.850;2023-02-28T11:22:51;0.80;;;0.80;;
6985;SDS011;3533;51.246;6.850;2023-02-28T11:27:46;0.80;;;0.80;;
6985;SDS011;3533;51.246;6.850;2023-02-28T11:30:23;1.07;;;0.90;;
6985;SDS011;3533;51.246;6.850;2023-02-28T11:32:48;0.70;;;0.70;;
6985;SDS011;3533;51.246;6.850;2023-02-28T11:35:19;0.90;;;0.90;;
6985;SDS011;3533;51.246;6.850;2023-02-28T11:37:49;0.80;;;0.80;;
6985;SDS011;3533;51.246;6.850;2023-02-28T11:40:15;0.80;;;0.80;;
6985;SDS011;3533;51.246;6.850;2023-02-28T11:48:22;1.00;;;0.90;;
6985;SDS011;3533;51.246;6.850;2023-02-28T12:02:44;0.90;;;0.90;;
6985;SDS011;3533;51.246;6.850;2023-02-28T12:12:29;1.00;;;0.90;;
6985;SDS011;3533;51.246;6.850;2023-02-28T12:15:13;0.90;;;0.90;;
6985;SDS011;3533;51.246;6.850;2023-02-28T12:21:18;0.80;;;0.80;;
6985;SDS011;3533;51.246;6.850;2023-02-28T12:24:03;1.83;;;1.10;;
6985;SDS011;3533;51.246;6.850;2023-02-28T12:26:47;0.90;;;0.90;;
6985;SDS011;3533;51.246;6.850;2023-02-28T12:29:21;1.10;;;1.00;;
6985;SDS011;3533;51.246;6.850;2023-02-28T12:34:25;1.87;;;0.90;;
6985;SDS011;3533;51.246;6.850;2023-02-28T12:36:56;0.90;;;0.80;;
6985;SDS011;3533;51.246;6.850;2023-02-28T12:39:30;0.80;;;0.80;;
6985;SDS011;3533;51.246;6.850;2023-02-28T12:42:04;1.00;;;0.90;;
6985;SDS011;3533;51.246;6.850;2023-02-28T12:44:37;0.80;;;0.80;;
6985;SDS011;3533;51.246;6.850;2023-02-28T12:47:13;0.97;;;0.90;;
6985;SDS011;3533;51.246;6.850;2023-02-28T12:49:42;0.80;;;0.80;;
6985;SDS011;3533;51.246;6.850;2023-02-28T12:52:14;0.80;;;0.80;;
6985;SDS011;3533;51.246;6.850;2023-02-28T12:58:01;0.83;;;0.83;;
6985;SDS011;3533;51.246;6.850;2023-02-28T13:00:37;1.00;;;0.87;;
6985;SDS011;3533;51.246;6.850;2023-02-28T13:10:50;1.00;;;0.90;;
6985;SDS011;3533;51.246;6.850;2023-02-28T13:13:23;0.97;;;0.87;;
6985;SDS011;3533;51.246;6.850;2023-02-28T13:16:00;0.80;;;0.80;;
6985;SDS011;3533;51.246;6.850;2023-02-28T13:18:27;1.00;;;0.90;;
6985;SDS011;3533;51.246;6.850;2023-02-28T13:20:56;0.83;;;0.83;;
6985;SDS011;3533;51.246;6.850;2023-02-28T13:23:55;0.80;;;0.80;;
6985;SDS011;3533;51.246;6.850;2023-02-28T13:26:20;1.00;;;0.90;;
6985;SDS011;3533;51.246;6.850;2023-02-28T13:34:30;1.00;;;0.90;;
6985;SDS011;3533;51.246;6.850;2023-02-28T13:42:32;1.00;;;0.90;;
6985;SDS011;3533;51.246;6.850;2023-02-28T13:48:14;0.70;;;0.70;;
6985;SDS011;3533;51.246;6.850;2023-02-28T13:58:22;0.90;;;0.90;;
6985;SDS011;3533;51.246;6.850;2023-02-28T14:06:38;1.10;;;1.00;;
6985;SDS011;3533;51.246;6.850;2023-02-28T14:18:01;0.90;;;0.90;;
6985;SDS011;3533;51.246;6.850;2023-02-28T14:20:31;1.00;;;0.90;;
6985;SDS011;3533;51.246;6.850;2023-02-28T14:26:07;0.97;;;0.90;;
6985;SDS011;3533;51.246;6.850;2023-02-28T14:32:25;0.80;;;0.80;;
6985;SDS011;3533;51.246;6.850;2023-02-28T14:35:13;0.83;;;0.83;;
6985;SDS011;3533;51.246;6.850;2023-02-28T14:37:51;0.80;;;0.80;;
6985;SDS011;3533;51.246;6.850;2023-02-28T14:40:23;0.60;;;0.60;;
6985;SDS011;3533;51.246;6.850;2023-02-28T14:43:02;0.90;;;0.90;;
6985;SDS011;3533;51.246;6.850;2023-02-28T14:45:30;0.90;;;0.80;;
6985;SDS011;3533;51.246;6.850;2023-02-28T14:48:02;0.80;;;0.70;;
6985;SDS011;3533;51.246;6.850;2023-02-28T14:50:34;0.80;;;0.80;;
6985;SDS011;3533;51.246;6.850;2023-02-28T14:53:02;0.80;;;0.80;;
6985;SDS011;3533;51.246;6.850;2023-02-28T14:55:29;1.10;;;0.80;;
6985;SDS011;3533;51.246;6.850;2023-02-28T14:58:01;1.00;;;0.90;;
6985;SDS011;3533;51.246;6.850;2023-02-28T15:00:30;0.80;;;0.80;;
6985;SDS011;3533;51.246;6.850;2023-02-28T15:02:57;0.80;;;0.80;;
6985;SDS011;3533;51.246;6.850;2023-02-28T15:05:34;0.97;;;0.87;;
6985;SDS011;3533;51.246;6.850;2023-02-28T15:10:35;0.80;;;0.80;;
6985;SDS011;3533;51.246;6.850;2023-02-28T15:13:02;0.90;;;0.80;;
6985;SDS011;3533;51.246;6.850;2023-02-28T15:15:45;0.73;;;0.73;;
6985;SDS011;3533;51.246;6.850;2023-02-28T15:18:23;0.90;;;0.80;;
6985;SDS011;3533;51.246;6.850;2023-02-28T15:20:56;0.90;;;0.90;;
6985;SDS011;3533;51.246;6.850;2023-02-28T15:23:24;1.10;;;0.70;;
6985;SDS011;3533;51.246;6.850;2023-02-28T15:25:49;0.80;;;0.80;;
6985;SDS011;3533;51.246;6.850;2023-02-28T15:28:18;0.70;;;0.70;;
6985;SDS011;3533;51.246;6.850;2023-02-28T15:30:51;0.87;;;0.87;;
6985;SDS011;3533;51.246;6.850;2023-02-28T15:33:31;0.90;;;0.80;;
6985;SDS011;3533;51.246;6.850;2023-02-28T15:38:36;0.93;;;0.87;;
6985;SDS011;3533;51.246;6.850;2023-02-28T15:41:01;1.73;;;1.00;;
6985;SDS011;3533;51.246;6.850;2023-02-28T15:43:36;1.00;;;0.90;;
6985;SDS011;3533;51.246;6.850;2023-02-28T15:46:04;1.03;;;0.93;;
6985;SDS011;3533;51.246;6.850;2023-02-28T15:48:33;1.00;;;0.90;;
6985;SDS011;3533;51.246;6.850;2023-02-28T15:51:17;0.93;;;0.90;;
6985;SDS011;3533;51.246;6.850;2023-02-28T15:53:48;0.97;;;0.83;;
6985;SDS011;3533;51.246;6.850;2023-02-28T15:56:28;0.97;;;0.87;;
6985;SDS011;3533;51.246;6.850;2023-02-28T15:58:56;0.83;;;0.83;;
6985;SDS011;3533;51.246;6.850;2023-02-28T16:01:32;1.10;;;0.90;;
6985;SDS011;3533;51.246;6.850;2023-02-28T16:04:03;1.17;;;1.07;;
6985;SDS011;3533;51.246;6.850;2023-02-28T16:06:35;0.93;;;0.90;;
6985;SDS011;3533;51.246;6.850;2023-02-28T16:09:08;1.97;;;0.90;;
6985;SDS011;3533;51.246;6.850;2023-02-28T16:11:37;0.97;;;0.97;;
6985;SDS011;3533;51.246;6.850;2023-02-28T16:14:06;0.87;;;0.87;;
6985;SDS011;3533;51.246;6.850;2023-02-28T16:16:41;0.80;;;0.80;;
6985;SDS011;3533;51.246;6.850;2023-02-28T16:19:08;0.90;;;0.90;;
6985;SDS011;3533;51.246;6.850;2023-02-28T16:21:33;0.90;;;0.90;;
6985;SDS011;3533;51.246;6.850;2023-02-28T16:23:59;1.10;;;1.00;;
6985;SDS011;3533;51.246;6.850;2023-02-28T16:26:24;1.00;;;0.90;;
6985;SDS011;3533;51.246;6.850;2023-02-28T16:28:52;1.97;;;1.00;;
6985;SDS011;3533;51.246;6.850;2023-02-28T16:31:18;0.70;;;0.70;;
6985;SDS011;3533;51.246;6.850;2023-02-28T16:33:44;1.30;;;1.00;;
6985;SDS011;3533;51.246;6.850;2023-02-28T16:36:13;1.00;;;0.80;;
6985;SDS011;3533;51.246;6.850;2023-02-28T16:38:40;0.80;;;0.80;;
6985;SDS011;3533;51.246;6.850;2023-02-28T16:41:05;1.67;;;0.80;;
6985;SDS011;3533;51.246;6.850;2023-02-28T16:43:31;0.87;;;0.87;;
6985;SDS011;3533;51.246;6.850;2023-02-28T16:45:57;2.20;;;0.90;;
6985;SDS011;3533;51.246;6.850;2023-02-28T16:48:23;0.80;;;0.80;;
6985;SDS011;3533;51.246;6.850;2023-02-28T16:50:50;1.00;;;0.90;;
6985;SDS011;3533;51.246;6.850;2023-02-28T16:53:15;1.20;;;1.10;;
6985;SDS011;3533;51.246;6.850;2023-02-28T16:55:41;0.90;;;0.80;;
6985;SDS011;3533;51.246;6.850;2023-02-28T16:58:06;1.10;;;0.90;;
6985;SDS011;3533;51.246;6.850;2023-02-28T17:00:38;0.83;;;0.83;;
6985;SDS011;3533;51.246;6.850;2023-02-28T17:03:04;1.20;;;1.10;;
6985;SDS011;3533;51.246;6.850;2023-02-28T17:05:33;0.80;;;0.80;;
6985;SDS011;3533;51.246;6.850;2023-02-28T17:08:02;0.80;;;0.80;;
6985;SDS011;3533;51.246;6.850;2023-02-28T17:10:28;1.43;;;0.90;;
6985;SDS011;3533;51.246;6.850;2023-02-28T17:12:54;1.57;;;0.90;;
6985;SDS011;3533;51.246;6.850;2023-02-28T17:15:20;0.80;;;0.80;;
6985;SDS011;3533;51.246;6.850;2023-02-28T17:17:46;0.83;;;0.83;;
6985;SDS011;3533;51.246;6.850;2023-02-28T17:20:15;1.20;;;1.10;;
6985;SDS011;3533;51.246;6.850;2023-02-28T17:22:42;1.60;;;1.50;;
6985;SDS011;3533;51.246;6.850;2023-02-28T17:25:08;1.80;;;1.50;;
6985;SDS011;3533;51.246;6.850;2023-02-28T17:27:35;2.00;;;1.90;;
6985;SDS011;3533;51.246;6.850;2023-02-28T17:30:01;1.77;;;1.67;;
6985;SDS011;3533;51.246;6.850;2023-02-28T17:32:28;2.50;;;2.30;;
6985;SDS011;3533;51.246;6.850;2023-02-28T17:34:53;4.20;;;2.80;;
6985;SDS011;3533;51.246;6.850;2023-02-28T17:37:19;2.87;;;2.67;;
6985;SDS011;3533;51.246;6.850;2023-02-28T17:39:44;3.20;;;3.00;;
6985;SDS011;3533;51.246;6.850;2023-02-28T17:42:10;3.53;;;3.23;;
6985;SDS011;3533;51.246;6.850;2023-02-28T17:44:35;3.67;;;3.37;;
6985;SDS011;3533;51.246;6.850;2023-02-28T17:47:02;3.50;;;3.20;;